sim
Sign-in with your pilot id or email,
or register
Callsign
Passwort

Schedule Details

Flight Number: OEO3377
Departure: Madrid Barajas Airport (LEMD) at 05:50
Arrival: Bremen Airport (EDDW) at 08:30

Weather Information
Getting current METAR information for LEMD 101930Z 09001KT CAVOK 31/08 Q1014 NOSIG
Getting current METAR information for EDDW 101950Z 30007KT 9999 FEW030 12/09 Q1017 NOSIG

Schedule Frequency

Route Map